sensor_id;sensor_type;location;lat;lon;timestamp;P1;durP1;ratioP1;P2;durP2;ratioP2
37459;SDS011;23318;50.966;5.284;2023-08-06T00:00:22;3.13;;;1.40;;
37459;SDS011;23318;50.966;5.284;2023-08-06T00:02:49;2.75;;;1.08;;
37459;SDS011;23318;50.966;5.284;2023-08-06T00:05:15;4.97;;;1.00;;
37459;SDS011;23318;50.966;5.284;2023-08-06T00:07:46;6.63;;;1.65;;
37459;SDS011;23318;50.966;5.284;2023-08-06T00:10:15;3.03;;;0.98;;
37459;SDS011;23318;50.966;5.284;2023-08-06T00:12:41;3.95;;;0.90;;
37459;SDS011;23318;50.966;5.284;2023-08-06T00:15:07;2.92;;;1.10;;
37459;SDS011;23318;50.966;5.284;2023-08-06T00:17:34;4.55;;;1.30;;
37459;SDS011;23318;50.966;5.284;2023-08-06T00:19:59;2.80;;;1.13;;
37459;SDS011;23318;50.966;5.284;2023-08-06T00:22:32;4.28;;;1.08;;
37459;SDS011;23318;50.966;5.284;2023-08-06T00:24:58;3.70;;;1.27;;
37459;SDS011;23318;50.966;5.284;2023-08-06T00:27:24;5.32;;;1.45;;
37459;SDS011;23318;50.966;5.284;2023-08-06T00:29:50;1.55;;;0.90;;
37459;SDS011;23318;50.966;5.284;2023-08-06T00:32:15;2.80;;;1.10;;
37459;SDS011;23318;50.966;5.284;2023-08-06T00:34:42;5.60;;;1.20;;
37459;SDS011;23318;50.966;5.284;2023-08-06T00:37:07;5.25;;;1.13;;
37459;SDS011;23318;50.966;5.284;2023-08-06T00:39:33;2.28;;;1.00;;
37459;SDS011;23318;50.966;5.284;2023-08-06T00:41:59;7.15;;;1.10;;
37459;SDS011;23318;50.966;5.284;2023-08-06T00:44:24;4.25;;;1.00;;
37459;SDS011;23318;50.966;5.284;2023-08-06T00:46:50;2.58;;;0.98;;
37459;SDS011;23318;50.966;5.284;2023-08-06T00:49:16;6.05;;;1.10;;
37459;SDS011;23318;50.966;5.284;2023-08-06T00:51:43;6.80;;;1.25;;
37459;SDS011;23318;50.966;5.284;2023-08-06T00:54:09;3.97;;;1.23;;
37459;SDS011;23318;50.966;5.284;2023-08-06T00:56:35;6.80;;;1.40;;
37459;SDS011;23318;50.966;5.284;2023-08-06T00:59:02;5.93;;;1.23;;
37459;SDS011;23318;50.966;5.284;2023-08-06T01:01:31;2.33;;;1.00;;
37459;SDS011;23318;50.966;5.284;2023-08-06T01:03:56;5.85;;;1.30;;
37459;SDS011;23318;50.966;5.284;2023-08-06T01:06:26;4.53;;;1.05;;
37459;SDS011;23318;50.966;5.284;2023-08-06T01:11:59;6.13;;;0.85;;
37459;SDS011;23318;50.966;5.284;2023-08-06T01:14:36;1.88;;;0.70;;
37459;SDS011;23318;50.966;5.284;2023-08-06T01:17:09;3.33;;;0.82;;
37459;SDS011;23318;50.966;5.284;2023-08-06T01:19:35;4.00;;;0.73;;
37459;SDS011;23318;50.966;5.284;2023-08-06T01:22:01;3.50;;;0.90;;
37459;SDS011;23318;50.966;5.284;2023-08-06T01:24:27;4.57;;;0.90;;
37459;SDS011;23318;50.966;5.284;2023-08-06T01:30:02;4.90;;;0.82;;
37459;SDS011;23318;50.966;5.284;2023-08-06T01:32:33;3.58;;;0.80;;
37459;SDS011;23318;50.966;5.284;2023-08-06T01:35:00;3.55;;;1.15;;
37459;SDS011;23318;50.966;5.284;2023-08-06T01:37:28;4.78;;;0.77;;
37459;SDS011;23318;50.966;5.284;2023-08-06T01:39:54;5.05;;;0.70;;
37459;SDS011;23318;50.966;5.284;2023-08-06T01:42:20;2.17;;;0.63;;
37459;SDS011;23318;50.966;5.284;2023-08-06T01:44:46;2.72;;;0.73;;
37459;SDS011;23318;50.966;5.284;2023-08-06T01:47:12;5.28;;;1.08;;
37459;SDS011;23318;50.966;5.284;2023-08-06T01:49:37;2.03;;;0.70;;
37459;SDS011;23318;50.966;5.284;2023-08-06T01:52:03;1.05;;;0.95;;
37459;SDS011;23318;50.966;5.284;2023-08-06T01:54:29;2.20;;;0.80;;
37459;SDS011;23318;50.966;5.284;2023-08-06T01:56:55;1.67;;;0.60;;
37459;SDS011;23318;50.966;5.284;2023-08-06T01:59:20;3.00;;;0.85;;
37459;SDS011;23318;50.966;5.284;2023-08-06T02:01:46;1.67;;;0.70;;
37459;SDS011;23318;50.966;5.284;2023-08-06T02:04:12;3.67;;;0.60;;
37459;SDS011;23318;50.966;5.284;2023-08-06T02:06:37;4.80;;;0.80;;
37459;SDS011;23318;50.966;5.284;2023-08-06T02:09:03;2.78;;;0.90;;
37459;SDS011;23318;50.966;5.284;2023-08-06T02:11:28;2.70;;;0.70;;
37459;SDS011;23318;50.966;5.284;2023-08-06T02:13:54;2.70;;;0.70;;
37459;SDS011;23318;50.966;5.284;2023-08-06T02:16:20;2.00;;;0.50;;
37459;SDS011;23318;50.966;5.284;2023-08-06T02:18:45;0.93;;;0.45;;
37459;SDS011;23318;50.966;5.284;2023-08-06T02:21:11;3.45;;;0.90;;
37459;SDS011;23318;50.966;5.284;2023-08-06T02:23:36;2.55;;;0.90;;
37459;SDS011;23318;50.966;5.284;2023-08-06T02:26:03;4.30;;;0.90;;
37459;SDS011;23318;50.966;5.284;2023-08-06T02:28:29;3.55;;;0.60;;
37459;SDS011;23318;50.966;5.284;2023-08-06T02:30:55;3.85;;;0.60;;
37459;SDS011;23318;50.966;5.284;2023-08-06T02:33:21;4.15;;;0.70;;
37459;SDS011;23318;50.966;5.284;2023-08-06T02:35:47;0.95;;;0.55;;
37459;SDS011;23318;50.966;5.284;2023-08-06T02:38:13;5.15;;;0.88;;
37459;SDS011;23318;50.966;5.284;2023-08-06T02:40:45;6.57;;;1.13;;
37459;SDS011;23318;50.966;5.284;2023-08-06T02:43:11;3.78;;;0.80;;
37459;SDS011;23318;50.966;5.284;2023-08-06T02:45:37;3.58;;;0.90;;
37459;SDS011;23318;50.966;5.284;2023-08-06T02:48:03;2.63;;;0.65;;
37459;SDS011;23318;50.966;5.284;2023-08-06T02:50:29;4.15;;;0.60;;
37459;SDS011;23318;50.966;5.284;2023-08-06T02:52:55;2.33;;;0.55;;
37459;SDS011;23318;50.966;5.284;2023-08-06T02:55:20;1.13;;;0.50;;
37459;SDS011;23318;50.966;5.284;2023-08-06T02:57:46;1.15;;;0.50;;
37459;SDS011;23318;50.966;5.284;2023-08-06T03:00:11;2.15;;;0.70;;
37459;SDS011;23318;50.966;5.284;2023-08-06T03:02:37;3.35;;;0.70;;
37459;SDS011;23318;50.966;5.284;2023-08-06T03:05:03;1.55;;;0.98;;
37459;SDS011;23318;50.966;5.284;2023-08-06T03:07:29;0.82;;;0.70;;
37459;SDS011;23318;50.966;5.284;2023-08-06T03:09:55;0.68;;;0.60;;
37459;SDS011;23318;50.966;5.284;2023-08-06T03:12:20;2.33;;;1.00;;
37459;SDS011;23318;50.966;5.284;2023-08-06T03:14:46;6.07;;;0.98;;
37459;SDS011;23318;50.966;5.284;2023-08-06T03:17:12;1.40;;;0.73;;
37459;SDS011;23318;50.966;5.284;2023-08-06T03:19:37;4.05;;;0.95;;
37459;SDS011;23318;50.966;5.284;2023-08-06T03:22:03;1.95;;;0.85;;
37459;SDS011;23318;50.966;5.284;2023-08-06T03:24:29;2.15;;;0.90;;
37459;SDS011;23318;50.966;5.284;2023-08-06T03:26:54;3.08;;;1.05;;
37459;SDS011;23318;50.966;5.284;2023-08-06T03:29:20;2.58;;;1.10;;
37459;SDS011;23318;50.966;5.284;2023-08-06T03:31:47;3.03;;;0.80;;
37459;SDS011;23318;50.966;5.284;2023-08-06T03:34:12;0.98;;;0.88;;
37459;SDS011;23318;50.966;5.284;2023-08-06T03:36:38;3.83;;;1.20;;
37459;SDS011;23318;50.966;5.284;2023-08-06T03:39:04;6.47;;;1.20;;
37459;SDS011;23318;50.966;5.284;2023-08-06T03:41:29;4.78;;;1.40;;
37459;SDS011;23318;50.966;5.284;2023-08-06T03:43:55;3.03;;;1.50;;
37459;SDS011;23318;50.966;5.284;2023-08-06T03:46:21;2.85;;;1.45;;
37459;SDS011;23318;50.966;5.284;2023-08-06T03:48:46;5.97;;;1.75;;
37459;SDS011;23318;50.966;5.284;2023-08-06T03:51:12;1.83;;;1.50;;
37459;SDS011;23318;50.966;5.284;2023-08-06T03:53:37;5.15;;;1.83;;
37459;SDS011;23318;50.966;5.284;2023-08-06T03:56:03;3.70;;;1.65;;
37459;SDS011;23318;50.966;5.284;2023-08-06T03:58:29;5.30;;;2.10;;
37459;SDS011;23318;50.966;5.284;2023-08-06T04:01:01;5.25;;;2.00;;
37459;SDS011;23318;50.966;5.284;2023-08-06T04:03:28;7.70;;;2.30;;
37459;SDS011;23318;50.966;5.284;2023-08-06T04:05:54;2.47;;;1.70;;
37459;SDS011;23318;50.966;5.284;2023-08-06T04:08:20;7.80;;;2.40;;
37459;SDS011;23318;50.966;5.284;2023-08-06T04:10:48;3.85;;;1.60;;
37459;SDS011;23318;50.966;5.284;2023-08-06T04:13:15;4.72;;;2.10;;
37459;SDS011;23318;50.966;5.284;2023-08-06T04:15:40;4.20;;;1.98;;
37459;SDS011;23318;50.966;5.284;2023-08-06T04:18:06;7.22;;;2.42;;
37459;SDS011;23318;50.966;5.284;2023-08-06T04:20:31;3.67;;;2.50;;
37459;SDS011;23318;50.966;5.284;2023-08-06T04:22:57;5.85;;;2.70;;
37459;SDS011;23318;50.966;5.284;2023-08-06T04:25:23;5.07;;;2.85;;
37459;SDS011;23318;50.966;5.284;2023-08-06T04:27:49;3.70;;;2.72;;
37459;SDS011;23318;50.966;5.284;2023-08-06T04:30:15;6.57;;;3.40;;
37459;SDS011;23318;50.966;5.284;2023-08-06T04:32:40;4.63;;;3.80;;
37459;SDS011;23318;50.966;5.284;2023-08-06T04:35:06;7.88;;;4.40;;
37459;SDS011;23318;50.966;5.284;2023-08-06T04:37:32;9.65;;;5.28;;
37459;SDS011;23318;50.966;5.284;2023-08-06T04:39:58;8.27;;;5.00;;
37459;SDS011;23318;50.966;5.284;2023-08-06T04:42:23;12.23;;;5.30;;
37459;SDS011;23318;50.966;5.284;2023-08-06T04:44:49;8.75;;;4.82;;
37459;SDS011;23318;50.966;5.284;2023-08-06T04:47:15;11.38;;;6.20;;
37459;SDS011;23318;50.966;5.284;2023-08-06T04:49:41;14.45;;;7.53;;
37459;SDS011;23318;50.966;5.284;2023-08-06T04:52:07;7.95;;;6.60;;
37459;SDS011;23318;50.966;5.284;2023-08-06T04:54:32;14.07;;;6.80;;
37459;SDS011;23318;50.966;5.284;2023-08-06T04:56:58;11.90;;;6.93;;
37459;SDS011;23318;50.966;5.284;2023-08-06T04:59:24;10.93;;;6.15;;
37459;SDS011;23318;50.966;5.284;2023-08-06T05:01:50;10.50;;;5.35;;
37459;SDS011;23318;50.966;5.284;2023-08-06T05:04:15;12.77;;;5.88;;
37459;SDS011;23318;50.966;5.284;2023-08-06T05:06:41;8.68;;;5.35;;
37459;SDS011;23318;50.966;5.284;2023-08-06T05:09:07;8.48;;;4.93;;
37459;SDS011;23318;50.966;5.284;2023-08-06T05:11:32;8.95;;;4.80;;
37459;SDS011;23318;50.966;5.284;2023-08-06T05:13:58;7.65;;;4.68;;
37459;SDS011;23318;50.966;5.284;2023-08-06T05:16:23;8.20;;;5.68;;
37459;SDS011;23318;50.966;5.284;2023-08-06T05:18:49;9.40;;;6.35;;
37459;SDS011;23318;50.966;5.284;2023-08-06T05:21:15;11.52;;;6.55;;
37459;SDS011;23318;50.966;5.284;2023-08-06T05:23:41;8.65;;;5.88;;
37459;SDS011;23318;50.966;5.284;2023-08-06T05:26:07;7.13;;;5.28;;
37459;SDS011;23318;50.966;5.284;2023-08-06T05:28:34;8.27;;;4.45;;
37459;SDS011;23318;50.966;5.284;2023-08-06T05:31:02;6.38;;;4.75;;
37459;SDS011;23318;50.966;5.284;2023-08-06T05:33:31;9.40;;;4.35;;
37459;SDS011;23318;50.966;5.284;2023-08-06T05:35:56;8.75;;;3.75;;
37459;SDS011;23318;50.966;5.284;2023-08-06T05:38:22;5.57;;;4.03;;
37459;SDS011;23318;50.966;5.284;2023-08-06T05:40:48;5.47;;;3.80;;
37459;SDS011;23318;50.966;5.284;2023-08-06T05:43:14;5.13;;;3.28;;
37459;SDS011;23318;50.966;5.284;2023-08-06T05:45:43;3.22;;;2.92;;
37459;SDS011;23318;50.966;5.284;2023-08-06T05:48:10;4.35;;;3.35;;
37459;SDS011;23318;50.966;5.284;2023-08-06T05:50:36;4.75;;;2.97;;
37459;SDS011;23318;50.966;5.284;2023-08-06T05:53:01;6.07;;;3.72;;
37459;SDS011;23318;50.966;5.284;2023-08-06T05:55:27;5.45;;;4.55;;
37459;SDS011;23318;50.966;5.284;2023-08-06T05:57:52;9.30;;;4.88;;
37459;SDS011;23318;50.966;5.284;2023-08-06T06:00:18;7.88;;;4.90;;
37459;SDS011;23318;50.966;5.284;2023-08-06T06:02:44;8.25;;;5.72;;
37459;SDS011;23318;50.966;5.284;2023-08-06T06:05:10;8.95;;;6.47;;
37459;SDS011;23318;50.966;5.284;2023-08-06T06:07:36;12.75;;;7.82;;
37459;SDS011;23318;50.966;5.284;2023-08-06T06:10:02;9.55;;;6.53;;
37459;SDS011;23318;50.966;5.284;2023-08-06T06:12:28;8.45;;;5.32;;
37459;SDS011;23318;50.966;5.284;2023-08-06T06:14:53;6.82;;;4.43;;
37459;SDS011;23318;50.966;5.284;2023-08-06T06:17:19;4.32;;;3.08;;
37459;SDS011;23318;50.966;5.284;2023-08-06T06:19:45;5.07;;;2.70;;
37459;SDS011;23318;50.966;5.284;2023-08-06T06:22:11;6.00;;;2.22;;
37459;SDS011;23318;50.966;5.284;2023-08-06T06:24:37;4.90;;;2.33;;
37459;SDS011;23318;50.966;5.284;2023-08-06T06:27:03;4.53;;;2.53;;
37459;SDS011;23318;50.966;5.284;2023-08-06T06:29:29;6.10;;;2.97;;
37459;SDS011;23318;50.966;5.284;2023-08-06T06:31:54;2.97;;;2.55;;
37459;SDS011;23318;50.966;5.284;2023-08-06T06:34:20;4.40;;;2.92;;
37459;SDS011;23318;50.966;5.284;2023-08-06T06:36:46;6.07;;;4.22;;
37459;SDS011;23318;50.966;5.284;2023-08-06T06:39:11;9.05;;;4.47;;
37459;SDS011;23318;50.966;5.284;2023-08-06T06:41:37;5.10;;;4.20;;
37459;SDS011;23318;50.966;5.284;2023-08-06T06:44:03;7.78;;;4.68;;
37459;SDS011;23318;50.966;5.284;2023-08-06T06:46:29;5.72;;;4.45;;
37459;SDS011;23318;50.966;5.284;2023-08-06T06:48:54;8.13;;;6.00;;
37459;SDS011;23318;50.966;5.284;2023-08-06T06:51:20;6.55;;;5.55;;
37459;SDS011;23318;50.966;5.284;2023-08-06T06:53:45;9.82;;;6.35;;
37459;SDS011;23318;50.966;5.284;2023-08-06T06:56:11;9.30;;;6.85;;
37459;SDS011;23318;50.966;5.284;2023-08-06T06:58:37;6.78;;;5.45;;
37459;SDS011;23318;50.966;5.284;2023-08-06T07:01:04;8.60;;;6.57;;
37459;SDS011;23318;50.966;5.284;2023-08-06T07:03:30;10.00;;;6.43;;
37459;SDS011;23318;50.966;5.284;2023-08-06T07:05:58;8.95;;;6.63;;
37459;SDS011;23318;50.966;5.284;2023-08-06T07:08:24;10.05;;;7.18;;
37459;SDS011;23318;50.966;5.284;2023-08-06T07:10:50;10.75;;;6.95;;
37459;SDS011;23318;50.966;5.284;2023-08-06T07:13:24;11.38;;;6.38;;
37459;SDS011;23318;50.966;5.284;2023-08-06T07:15:49;11.07;;;5.30;;
37459;SDS011;23318;50.966;5.284;2023-08-06T07:18:15;5.32;;;4.03;;
37459;SDS011;23318;50.966;5.284;2023-08-06T07:20:41;8.85;;;3.83;;
37459;SDS011;23318;50.966;5.284;2023-08-06T07:23:06;4.85;;;3.25;;
37459;SDS011;23318;50.966;5.284;2023-08-06T07:25:32;6.65;;;3.42;;
37459;SDS011;23318;50.966;5.284;2023-08-06T07:27:57;5.60;;;3.08;;
37459;SDS011;23318;50.966;5.284;2023-08-06T07:30:23;4.03;;;2.20;;
37459;SDS011;23318;50.966;5.284;2023-08-06T07:32:49;9.15;;;2.95;;
37459;SDS011;23318;50.966;5.284;2023-08-06T07:35:15;6.85;;;2.60;;
37459;SDS011;23318;50.966;5.284;2023-08-06T07:37:40;4.60;;;2.35;;
37459;SDS011;23318;50.966;5.284;2023-08-06T07:40:06;4.95;;;2.90;;
37459;SDS011;23318;50.966;5.284;2023-08-06T07:42:32;14.48;;;4.03;;
37459;SDS011;23318;50.966;5.284;2023-08-06T07:44:58;5.90;;;3.30;;
37459;SDS011;23318;50.966;5.284;2023-08-06T07:47:24;6.93;;;2.28;;
37459;SDS011;23318;50.966;5.284;2023-08-06T07:49:50;7.95;;;3.17;;
37459;SDS011;23318;50.966;5.284;2023-08-06T07:52:15;8.10;;;2.88;;
37459;SDS011;23318;50.966;5.284;2023-08-06T07:54:41;9.55;;;3.10;;
37459;SDS011;23318;50.966;5.284;2023-08-06T07:57:07;5.45;;;3.25;;
37459;SDS011;23318;50.966;5.284;2023-08-06T07:59:32;5.78;;;3.42;;
37459;SDS011;23318;50.966;5.284;2023-08-06T08:01:58;8.60;;;3.15;;
37459;SDS011;23318;50.966;5.284;2023-08-06T08:04:25;9.13;;;3.95;;
37459;SDS011;23318;50.966;5.284;2023-08-06T08:06:50;8.95;;;3.63;;
37459;SDS011;23318;50.966;5.284;2023-08-06T08:09:16;13.52;;;4.20;;
37459;SDS011;23318;50.966;5.284;2023-08-06T08:11:42;11.75;;;3.60;;
37459;SDS011;23318;50.966;5.284;2023-08-06T08:14:07;7.90;;;3.67;;
37459;SDS011;23318;50.966;5.284;2023-08-06T08:16:33;10.88;;;3.58;;
37459;SDS011;23318;50.966;5.284;2023-08-06T08:18:59;5.50;;;2.58;;
37459;SDS011;23318;50.966;5.284;2023-08-06T08:21:24;11.52;;;3.38;;
37459;SDS011;23318;50.966;5.284;2023-08-06T08:23:50;19.52;;;4.25;;
37459;SDS011;23318;50.966;5.284;2023-08-06T08:26:17;9.05;;;3.70;;
37459;SDS011;23318;50.966;5.284;2023-08-06T08:28:43;15.02;;;4.07;;
37459;SDS011;23318;50.966;5.284;2023-08-06T08:31:09;10.23;;;3.13;;
37459;SDS011;23318;50.966;5.284;2023-08-06T08:33:36;15.48;;;4.03;;
37459;SDS011;23318;50.966;5.284;2023-08-06T08:36:02;17.92;;;3.95;;
37459;SDS011;23318;50.966;5.284;2023-08-06T08:38:28;10.43;;;3.55;;
37459;SDS011;23318;50.966;5.284;2023-08-06T08:40:54;15.63;;;3.38;;
37459;SDS011;23318;50.966;5.284;2023-08-06T08:43:20;10.85;;;3.17;;
37459;SDS011;23318;50.966;5.284;2023-08-06T08:45:49;10.80;;;3.38;;
37459;SDS011;23318;50.966;5.284;2023-08-06T08:48:16;13.48;;;4.05;;
37459;SDS011;23318;50.966;5.284;2023-08-06T08:50:44;13.57;;;4.05;;
37459;SDS011;23318;50.966;5.284;2023-08-06T08:53:12;11.70;;;3.63;;
37459;SDS011;23318;50.966;5.284;2023-08-06T08:55:40;7.28;;;3.17;;
37459;SDS011;23318;50.966;5.284;2023-08-06T08:58:07;13.32;;;3.40;;
37459;SDS011;23318;50.966;5.284;2023-08-06T09:00:33;16.17;;;3.80;;
37459;SDS011;23318;50.966;5.284;2023-08-06T09:03:00;9.38;;;2.40;;
37459;SDS011;23318;50.966;5.284;2023-08-06T09:05:28;8.90;;;2.63;;
37459;SDS011;23318;50.966;5.284;2023-08-06T09:07:55;18.45;;;2.90;;
37459;SDS011;23318;50.966;5.284;2023-08-06T09:10:28;13.90;;;2.57;;
37459;SDS011;23318;50.966;5.284;2023-08-06T09:12:55;14.00;;;3.40;;
37459;SDS011;23318;50.966;5.284;2023-08-06T09:15:23;12.05;;;2.42;;
37459;SDS011;23318;50.966;5.284;2023-08-06T09:17:50;16.08;;;3.17;;
37459;SDS011;23318;50.966;5.284;2023-08-06T09:20:17;19.45;;;2.42;;
37459;SDS011;23318;50.966;5.284;2023-08-06T09:22:42;13.55;;;2.60;;
37459;SDS011;23318;50.966;5.284;2023-08-06T09:25:10;15.95;;;2.40;;
37459;SDS011;23318;50.966;5.284;2023-08-06T09:27:36;17.85;;;2.28;;
37459;SDS011;23318;50.966;5.284;2023-08-06T09:30:03;13.80;;;2.30;;
37459;SDS011;23318;50.966;5.284;2023-08-06T09:32:44;13.13;;;3.00;;
37459;SDS011;23318;50.966;5.284;2023-08-06T09:35:15;12.85;;;2.85;;
37459;SDS011;23318;50.966;5.284;2023-08-06T09:37:41;18.55;;;2.53;;
37459;SDS011;23318;50.966;5.284;2023-08-06T09:42:53;10.80;;;2.67;;
37459;SDS011;23318;50.966;5.284;2023-08-06T09:45:19;11.73;;;2.88;;
37459;SDS011;23318;50.966;5.284;2023-08-06T09:47:44;11.70;;;1.75;;
37459;SDS011;23318;50.966;5.284;2023-08-06T09:50:17;14.98;;;3.08;;
37459;SDS011;23318;50.966;5.284;2023-08-06T09:52:43;13.02;;;1.83;;
37459;SDS011;23318;50.966;5.284;2023-08-06T09:55:12;6.63;;;1.80;;
37459;SDS011;23318;50.966;5.284;2023-08-06T09:57:42;8.30;;;2.40;;
37459;SDS011;23318;50.966;5.284;2023-08-06T10:00:11;13.27;;;2.38;;
37459;SDS011;23318;50.966;5.284;2023-08-06T10:02:37;11.98;;;2.42;;
37459;SDS011;23318;50.966;5.284;2023-08-06T10:05:04;6.50;;;2.05;;
37459;SDS011;23318;50.966;5.284;2023-08-06T10:07:31;11.45;;;2.35;;
37459;SDS011;23318;50.966;5.284;2023-08-06T10:09:56;7.95;;;1.85;;
37459;SDS011;23318;50.966;5.284;2023-08-06T10:12:23;9.55;;;2.20;;
37459;SDS011;23318;50.966;5.284;2023-08-06T10:14:51;9.00;;;2.40;;
37459;SDS011;23318;50.966;5.284;2023-08-06T10:17:20;10.65;;;2.05;;
37459;SDS011;23318;50.966;5.284;2023-08-06T10:19:47;6.60;;;1.77;;
37459;SDS011;23318;50.966;5.284;2023-08-06T10:22:15;11.57;;;2.05;;
37459;SDS011;23318;50.966;5.284;2023-08-06T10:24:49;5.53;;;1.65;;
37459;SDS011;23318;50.966;5.284;2023-08-06T10:29:56;7.72;;;2.22;;
37459;SDS011;23318;50.966;5.284;2023-08-06T10:32:51;6.93;;;1.92;;
37459;SDS011;23318;50.966;5.284;2023-08-06T10:35:33;16.20;;;2.10;;
37459;SDS011;23318;50.966;5.284;2023-08-06T10:38:08;8.13;;;1.95;;
37459;SDS011;23318;50.966;5.284;2023-08-06T10:40:36;10.52;;;2.42;;
37459;SDS011;23318;50.966;5.284;2023-08-06T10:43:04;10.63;;;2.03;;
37459;SDS011;23318;50.966;5.284;2023-08-06T10:45:35;5.85;;;1.60;;
37459;SDS011;23318;50.966;5.284;2023-08-06T10:48:02;4.47;;;1.50;;
37459;SDS011;23318;50.966;5.284;2023-08-06T10:50:29;7.70;;;1.98;;
37459;SDS011;23318;50.966;5.284;2023-08-06T10:52:56;7.70;;;1.83;;
37459;SDS011;23318;50.966;5.284;2023-08-06T10:55:26;3.95;;;1.30;;
37459;SDS011;23318;50.966;5.284;2023-08-06T10:57:53;5.30;;;1.42;;
37459;SDS011;23318;50.966;5.284;2023-08-06T11:00:20;3.55;;;1.48;;
37459;SDS011;23318;50.966;5.284;2023-08-06T11:02:47;5.03;;;1.55;;
37459;SDS011;23318;50.966;5.284;2023-08-06T11:05:14;7.75;;;1.52;;
37459;SDS011;23318;50.966;5.284;2023-08-06T11:07:40;6.10;;;1.85;;
37459;SDS011;23318;50.966;5.284;2023-08-06T11:10:14;7.95;;;1.80;;
37459;SDS011;23318;50.966;5.284;2023-08-06T11:12:40;11.65;;;2.15;;
37459;SDS011;23318;50.966;5.284;2023-08-06T11:15:06;7.57;;;1.50;;
37459;SDS011;23318;50.966;5.284;2023-08-06T11:17:33;2.25;;;1.10;;
37459;SDS011;23318;50.966;5.284;2023-08-06T11:19:59;4.90;;;1.85;;
37459;SDS011;23318;50.966;5.284;2023-08-06T11:22:26;4.60;;;1.40;;
37459;SDS011;23318;50.966;5.284;2023-08-06T11:24:53;5.25;;;1.13;;
37459;SDS011;23318;50.966;5.284;2023-08-06T11:27:19;6.57;;;1.30;;
37459;SDS011;23318;50.966;5.284;2023-08-06T11:29:45;2.33;;;1.10;;
37459;SDS011;23318;50.966;5.284;2023-08-06T11:32:10;5.95;;;1.17;;
37459;SDS011;23318;50.966;5.284;2023-08-06T11:34:37;7.38;;;1.42;;
37459;SDS011;23318;50.966;5.284;2023-08-06T11:37:04;10.25;;;1.70;;
37459;SDS011;23318;50.966;5.284;2023-08-06T11:39:37;6.40;;;1.80;;
37459;SDS011;23318;50.966;5.284;2023-08-06T11:42:04;5.18;;;1.75;;
37459;SDS011;23318;50.966;5.284;2023-08-06T11:44:31;8.38;;;1.98;;
37459;SDS011;23318;50.966;5.284;2023-08-06T11:46:58;13.70;;;2.13;;
37459;SDS011;23318;50.966;5.284;2023-08-06T11:52:08;11.52;;;2.42;;
37459;SDS011;23318;50.966;5.284;2023-08-06T11:54:41;6.75;;;2.00;;
37459;SDS011;23318;50.966;5.284;2023-08-06T11:57:07;9.82;;;1.38;;
37459;SDS011;23318;50.966;5.284;2023-08-06T11:59:33;8.05;;;1.65;;
37459;SDS011;23318;50.966;5.284;2023-08-06T12:02:03;8.10;;;1.33;;
37459;SDS011;23318;50.966;5.284;2023-08-06T12:04:56;5.30;;;1.30;;
37459;SDS011;23318;50.966;5.284;2023-08-06T12:07:38;5.63;;;1.20;;
37459;SDS011;23318;50.966;5.284;2023-08-06T12:10:07;6.55;;;1.10;;
37459;SDS011;23318;50.966;5.284;2023-08-06T12:12:33;5.28;;;0.88;;
37459;SDS011;23318;50.966;5.284;2023-08-06T12:14:59;4.03;;;1.13;;
37459;SDS011;23318;50.966;5.284;2023-08-06T12:17:25;8.20;;;1.20;;
37459;SDS011;23318;50.966;5.284;2023-08-06T12:19:51;8.13;;;1.50;;
37459;SDS011;23318;50.966;5.284;2023-08-06T12:22:17;9.55;;;1.27;;
37459;SDS011;23318;50.966;5.284;2023-08-06T12:24:43;7.03;;;1.45;;
37459;SDS011;23318;50.966;5.284;2023-08-06T12:27:10;7.50;;;1.55;;
37459;SDS011;23318;50.966;5.284;2023-08-06T12:29:43;7.40;;;1.30;;
37459;SDS011;23318;50.966;5.284;2023-08-06T12:32:10;13.48;;;1.75;;
37459;SDS011;23318;50.966;5.284;2023-08-06T12:34:40;10.23;;;1.58;;
37459;SDS011;23318;50.966;5.284;2023-08-06T12:37:06;7.75;;;1.35;;
37459;SDS011;23318;50.966;5.284;2023-08-06T12:39:33;7.20;;;1.35;;
37459;SDS011;23318;50.966;5.284;2023-08-06T12:42:00;8.23;;;1.45;;
37459;SDS011;23318;50.966;5.284;2023-08-06T12:44:26;5.05;;;1.42;;
37459;SDS011;23318;50.966;5.284;2023-08-06T12:46:52;4.90;;;1.40;;
37459;SDS011;23318;50.966;5.284;2023-08-06T12:49:18;6.20;;;1.77;;
37459;SDS011;23318;50.966;5.284;2023-08-06T12:51:46;4.70;;;1.50;;
37459;SDS011;23318;50.966;5.284;2023-08-06T12:54:12;5.45;;;1.58;;
37459;SDS011;23318;50.966;5.284;2023-08-06T12:56:37;4.90;;;1.58;;
37459;SDS011;23318;50.966;5.284;2023-08-06T12:59:03;5.32;;;1.77;;
37459;SDS011;23318;50.966;5.284;2023-08-06T13:01:29;7.15;;;1.52;;
37459;SDS011;23318;50.966;5.284;2023-08-06T13:03:54;10.90;;;1.55;;
37459;SDS011;23318;50.966;5.284;2023-08-06T13:06:20;9.13;;;1.40;;
37459;SDS011;23318;50.966;5.284;2023-08-06T13:08:46;5.38;;;1.02;;
37459;SDS011;23318;50.966;5.284;2023-08-06T13:11:11;3.40;;;0.93;;
37459;SDS011;23318;50.966;5.284;2023-08-06T13:13:37;4.28;;;0.90;;
37459;SDS011;23318;50.966;5.284;2023-08-06T13:16:03;2.78;;;1.00;;
37459;SDS011;23318;50.966;5.284;2023-08-06T13:18:28;4.75;;;0.85;;
37459;SDS011;23318;50.966;5.284;2023-08-06T13:20:54;4.90;;;1.05;;
37459;SDS011;23318;50.966;5.284;2023-08-06T13:23:20;5.68;;;1.13;;
37459;SDS011;23318;50.966;5.284;2023-08-06T13:25:46;11.73;;;1.58;;
37459;SDS011;23318;50.966;5.284;2023-08-06T13:28:12;7.45;;;1.40;;
37459;SDS011;23318;50.966;5.284;2023-08-06T13:30:39;3.85;;;1.20;;
37459;SDS011;23318;50.966;5.284;2023-08-06T13:33:07;4.70;;;1.10;;
37459;SDS011;23318;50.966;5.284;2023-08-06T13:35:33;5.13;;;1.77;;
37459;SDS011;23318;50.966;5.284;2023-08-06T13:37:59;7.10;;;1.90;;
37459;SDS011;23318;50.966;5.284;2023-08-06T13:40:27;7.40;;;1.50;;
37459;SDS011;23318;50.966;5.284;2023-08-06T13:42:53;7.03;;;1.70;;
37459;SDS011;23318;50.966;5.284;2023-08-06T13:45:19;4.90;;;1.85;;
37459;SDS011;23318;50.966;5.284;2023-08-06T13:47:45;6.47;;;1.50;;
37459;SDS011;23318;50.966;5.284;2023-08-06T13:50:10;8.20;;;1.55;;
37459;SDS011;23318;50.966;5.284;2023-08-06T13:52:36;7.65;;;1.33;;
37459;SDS011;23318;50.966;5.284;2023-08-06T13:55:02;8.55;;;1.48;;
37459;SDS011;23318;50.966;5.284;2023-08-06T13:57:29;10.13;;;1.92;;
37459;SDS011;23318;50.966;5.284;2023-08-06T13:59:54;7.18;;;1.30;;
37459;SDS011;23318;50.966;5.284;2023-08-06T14:02:20;3.95;;;1.55;;
37459;SDS011;23318;50.966;5.284;2023-08-06T14:04:47;8.02;;;1.30;;
37459;SDS011;23318;50.966;5.284;2023-08-06T14:07:13;5.68;;;1.00;;
37459;SDS011;23318;50.966;5.284;2023-08-06T14:09:38;6.47;;;1.30;;
37459;SDS011;23318;50.966;5.284;2023-08-06T14:12:05;5.25;;;1.25;;
37459;SDS011;23318;50.966;5.284;2023-08-06T14:14:31;4.03;;;1.05;;
37459;SDS011;23318;50.966;5.284;2023-08-06T14:16:57;6.68;;;1.00;;
37459;SDS011;23318;50.966;5.284;2023-08-06T14:19:23;5.05;;;1.17;;
37459;SDS011;23318;50.966;5.284;2023-08-06T14:21:49;1.90;;;0.60;;
37459;SDS011;23318;50.966;5.284;2023-08-06T14:24:14;2.83;;;0.80;;
37459;SDS011;23318;50.966;5.284;2023-08-06T14:26:40;2.90;;;0.80;;
37459;SDS011;23318;50.966;5.284;2023-08-06T14:29:06;4.88;;;0.75;;
37459;SDS011;23318;50.966;5.284;2023-08-06T14:31:31;6.40;;;0.75;;
37459;SDS011;23318;50.966;5.284;2023-08-06T14:33:57;1.70;;;0.50;;
37459;SDS011;23318;50.966;5.284;2023-08-06T14:36:23;2.13;;;0.80;;
37459;SDS011;23318;50.966;5.284;2023-08-06T14:38:48;2.60;;;0.60;;
37459;SDS011;23318;50.966;5.284;2023-08-06T14:41:14;2.95;;;0.55;;
37459;SDS011;23318;50.966;5.284;2023-08-06T14:43:40;3.50;;;0.70;;
37459;SDS011;23318;50.966;5.284;2023-08-06T14:46:05;3.45;;;0.65;;
37459;SDS011;23318;50.966;5.284;2023-08-06T14:48:31;6.95;;;0.50;;
37459;SDS011;23318;50.966;5.284;2023-08-06T14:50:56;4.38;;;0.80;;
37459;SDS011;23318;50.966;5.284;2023-08-06T14:53:22;4.00;;;0.60;;
37459;SDS011;23318;50.966;5.284;2023-08-06T14:55:48;3.08;;;0.80;;